createdAt,value
2019-02-16T00:01:59.697Z,11.47
2019-02-16T00:04:31.118Z,9.90
2019-02-16T00:07:02.386Z,11.23
2019-02-16T00:09:35.601Z,10.43
2019-02-16T00:12:07.042Z,10.77
2019-02-16T00:14:38.474Z,10.77
2019-02-16T00:17:09.835Z,11.73
2019-02-16T00:19:41.203Z,11.03
2019-02-16T00:22:12.643Z,10.20
2019-02-16T00:24:44.076Z,11.27
2019-02-16T00:27:15.407Z,10.93
2019-02-16T00:29:46.707Z,10.47
2019-02-16T00:32:17.983Z,10.20
2019-02-16T00:34:49.390Z,10.00
2019-02-16T00:37:20.794Z,10.27
2019-02-16T00:39:52.315Z,10.33
2019-02-16T00:42:23.609Z,10.30
2019-02-16T00:44:55.019Z,10.60
2019-02-16T00:47:26.416Z,10.23
2019-02-16T00:49:57.741Z,10.70
2019-02-16T00:52:29.199Z,10.30
2019-02-16T00:55:00.699Z,10.70
2019-02-16T00:57:32.101Z,10.37
2019-02-16T01:00:03.659Z,10.77
2019-02-16T01:02:35.824Z,10.30
2019-02-16T01:05:09.747Z,10.17
2019-02-16T01:07:41.190Z,11.40
2019-02-16T01:10:13.819Z,10.70
2019-02-16T01:12:45.180Z,11.73
2019-02-16T01:15:16.682Z,11.20
2019-02-16T01:17:48.100Z,10.73
2019-02-16T01:20:19.559Z,10.80
2019-02-16T01:22:50.836Z,11.00
2019-02-16T01:25:22.222Z,9.90
2019-02-16T01:27:53.558Z,10.40
2019-02-16T01:30:24.938Z,10.03
2019-02-16T01:32:56.227Z,10.20
2019-02-16T01:35:27.528Z,9.67
2019-02-16T01:37:58.948Z,9.37
2019-02-16T01:40:30.399Z,10.37
2019-02-16T01:43:01.681Z,10.33
2019-02-16T01:45:33.183Z,10.47
2019-02-16T01:48:04.471Z,10.63
2019-02-16T01:50:35.797Z,11.27
2019-02-16T01:53:07.226Z,10.40
2019-02-16T01:55:38.613Z,10.47
2019-02-16T01:58:09.958Z,10.60
2019-02-16T02:00:41.329Z,13.97
2019-02-16T02:03:13.809Z,14.60
2019-02-16T02:05:45.183Z,16.07
2019-02-16T02:08:16.603Z,14.70
2019-02-16T02:10:48.074Z,16.43
2019-02-16T02:13:19.376Z,17.37
2019-02-16T02:15:50.673Z,16.47
2019-02-16T02:18:23.129Z,17.03
2019-02-16T02:20:54.461Z,16.67
2019-02-16T02:23:26.911Z,17.23
2019-02-16T02:25:58.185Z,17.37
2019-02-16T02:28:29.521Z,16.63
2019-02-16T02:31:00.867Z,17.47
2019-02-16T02:33:33.200Z,16.60
2019-02-16T02:36:04.779Z,15.77
2019-02-16T02:38:36.180Z,14.77
2019-02-16T02:41:07.534Z,15.23
2019-02-16T02:43:38.896Z,14.57
2019-02-16T02:46:10.244Z,13.13
2019-02-16T02:48:41.648Z,11.63
2019-02-16T02:51:13.031Z,9.80
2019-02-16T02:53:44.441Z,9.07
2019-02-16T02:56:15.856Z,10.20
2019-02-16T02:58:47.192Z,9.47
2019-02-16T03:01:18.596Z,8.23
2019-02-16T03:03:49.932Z,8.30
2019-02-16T03:06:21.261Z,10.40
2019-02-16T03:08:52.547Z,11.57
2019-02-16T03:11:23.943Z,8.87
2019-02-16T03:13:55.296Z,9.30
2019-02-16T03:16:26.672Z,9.23
2019-02-16T03:18:58.054Z,9.53
2019-02-16T03:21:29.435Z,10.07
2019-02-16T03:24:07.891Z,10.43
2019-02-16T03:26:49.733Z,10.43
2019-02-16T03:29:34.700Z,11.43
2019-02-16T03:32:30.268Z,11.50
2019-02-16T03:35:40.995Z,11.57
2019-02-16T03:38:35.043Z,12.50
2019-02-16T03:41:06.343Z,13.80
2019-02-16T03:43:37.808Z,15.83
2019-02-16T03:46:09.271Z,15.27
2019-02-16T03:48:40.520Z,15.67
2019-02-16T03:51:11.873Z,15.37
2019-02-16T03:53:43.184Z,15.93
2019-02-16T03:56:14.738Z,17.73
2019-02-16T03:58:46.035Z,18.17
2019-02-16T04:01:17.381Z,19.80
2019-02-16T04:03:48.725Z,21.20
2019-02-16T04:06:20.126Z,22.10
2019-02-16T04:08:54.023Z,21.07
2019-02-16T04:11:26.228Z,20.83
2019-02-16T04:13:57.618Z,21.90
2019-02-16T04:16:29.221Z,19.60
2019-02-16T04:19:00.597Z,18.90
2019-02-16T04:21:32.934Z,18.97
2019-02-16T04:24:04.381Z,19.87
2019-02-16T04:26:35.694Z,20.57
2019-02-16T04:29:07.022Z,19.37
2019-02-16T04:31:39.469Z,20.57
2019-02-16T04:34:10.881Z,19.77
2019-02-16T04:36:42.323Z,20.87
2019-02-16T04:39:13.613Z,18.83
2019-02-16T04:41:44.886Z,18.17
2019-02-16T04:44:16.196Z,17.30
2019-02-16T04:46:47.555Z,17.70
2019-02-16T04:49:18.927Z,16.60
2019-02-16T04:51:50.287Z,17.13
2019-02-16T04:54:21.665Z,16.63
2019-02-16T04:56:53.015Z,18.40
2019-02-16T04:59:24.343Z,18.27
2019-02-16T05:01:55.813Z,20.17
2019-02-16T05:04:27.295Z,21.67
2019-02-16T05:06:58.651Z,22.47
2019-02-16T05:09:30.005Z,21.03
2019-02-16T05:12:01.498Z,20.47
2019-02-16T05:14:32.908Z,19.30
2019-02-16T05:17:10.675Z,20.30
2019-02-16T05:19:42.188Z,20.73
2019-02-16T05:22:13.482Z,21.07
2019-02-16T05:24:44.829Z,20.93
2019-02-16T05:27:16.337Z,20.70
2019-02-16T05:29:48.066Z,21.07
2019-02-16T05:32:19.332Z,20.70
2019-02-16T05:34:50.646Z,20.20
2019-02-16T05:37:30.243Z,20.43
2019-02-16T05:40:01.064Z,19.93
2019-02-16T05:42:32.409Z,20.27
2019-02-16T05:45:04.251Z,18.43
2019-02-16T05:47:35.597Z,20.03
2019-02-16T05:50:07.234Z,19.63
2019-02-16T05:52:38.585Z,20.03
2019-02-16T05:55:10.273Z,19.70
2019-02-16T05:58:00.716Z,18.47
2019-02-16T06:00:32.361Z,19.20
2019-02-16T06:03:03.757Z,19.63
2019-02-16T06:05:35.236Z,19.67
2019-02-16T06:08:06.604Z,19.07
2019-02-16T06:10:38.113Z,17.37
2019-02-16T06:13:09.387Z,19.17
2019-02-16T06:15:41.215Z,18.47
2019-02-16T06:18:12.504Z,18.27
2019-02-16T06:20:43.907Z,18.10
2019-02-16T06:23:15.226Z,18.47
2019-02-16T06:25:46.768Z,17.80
2019-02-16T06:28:18.191Z,17.53
2019-02-16T06:30:49.733Z,16.80
2019-02-16T06:33:21.437Z,18.17
2019-02-16T06:35:54.448Z,18.47
2019-02-16T06:38:26.744Z,18.00
2019-02-16T06:41:02.952Z,17.43
2019-02-16T06:43:34.442Z,17.20
2019-02-16T06:46:05.883Z,17.93
2019-02-16T06:48:37.293Z,18.47
2019-02-16T06:51:09.319Z,19.10
2019-02-16T06:53:41.894Z,19.07
2019-02-16T06:56:21.040Z,18.80
2019-02-16T06:58:52.378Z,16.83
2019-02-16T07:01:23.865Z,17.13
2019-02-16T07:03:55.143Z,17.13
2019-02-16T07:06:29.695Z,18.83
2019-02-16T07:09:01.399Z,19.57
2019-02-16T07:11:34.343Z,21.90
2019-02-16T07:14:05.698Z,22.57
2019-02-16T07:16:42.015Z,23.10
2019-02-16T07:19:15.050Z,24.03
2019-02-16T07:21:46.538Z,24.27
2019-02-16T07:24:17.885Z,23.80
2019-02-16T07:26:49.444Z,24.30
2019-02-16T07:29:20.875Z,24.47
2019-02-16T07:31:52.408Z,24.53
2019-02-16T07:34:24.002Z,25.13
2019-02-16T07:36:55.604Z,27.70
2019-02-16T07:39:26.950Z,28.00
2019-02-16T07:41:58.341Z,28.80
2019-02-16T07:44:38.398Z,32.03
2019-02-16T07:47:17.463Z,31.77
2019-02-16T07:50:08.685Z,33.53
2019-02-16T07:52:41.728Z,34.90
2019-02-16T07:55:23.231Z,37.30
2019-02-16T07:57:52.347Z,36.60
2019-02-16T08:00:44.792Z,38.90
2019-02-16T08:03:29.929Z,37.17
2019-02-16T08:06:19.249Z,38.60
2019-02-16T08:08:56.700Z,38.03
2019-02-16T08:11:29.672Z,37.57
2019-02-16T08:14:03.435Z,37.20
2019-02-16T08:16:39.457Z,33.20
2019-02-16T08:19:24.467Z,34.53
2019-02-16T08:22:03.228Z,34.57
2019-02-16T08:24:51.193Z,33.27
2019-02-16T08:27:24.277Z,34.27
2019-02-16T08:29:57.310Z,32.80
2019-02-16T08:32:34.158Z,31.87
2019-02-16T08:35:07.781Z,31.40
2019-02-16T08:37:49.668Z,31.97
2019-02-16T08:40:37.734Z,30.73
2019-02-16T08:43:16.533Z,30.37
2019-02-16T08:45:51.162Z,28.70
2019-02-16T08:48:30.147Z,29.97
2019-02-16T08:51:08.632Z,30.13
2019-02-16T08:53:49.654Z,29.83
2019-02-16T08:56:16.420Z,29.00
2019-02-16T08:58:55.212Z,30.53
2019-02-16T09:01:43.402Z,30.93
2019-02-16T09:04:22.393Z,29.03
2019-02-16T09:07:04.258Z,27.23
2019-02-16T09:09:37.174Z,29.47
2019-02-16T09:12:28.231Z,29.10
2019-02-16T09:15:17.330Z,28.93
2019-02-16T09:18:06.717Z,27.80
2019-02-16T09:20:56.185Z,27.97
2019-02-16T09:23:29.262Z,28.93
2019-02-16T09:26:03.216Z,27.90
2019-02-16T09:28:39.160Z,27.00
2019-02-16T09:31:12.228Z,28.87
2019-02-16T09:33:58.522Z,26.73
2019-02-16T09:36:33.255Z,25.47
2019-02-16T09:39:16.337Z,27.20
2019-02-16T09:41:49.402Z,26.03
2019-02-16T09:44:25.572Z,25.53
2019-02-16T09:47:01.652Z,25.23
2019-02-16T09:49:46.355Z,25.17
2019-02-16T09:52:35.347Z,27.17
2019-02-16T09:55:15.831Z,24.97
2019-02-16T09:57:57.788Z,25.10
2019-02-16T10:00:30.845Z,25.50
2019-02-16T10:03:13.041Z,24.67
2019-02-16T10:05:55.202Z,25.27
2019-02-16T10:08:30.720Z,25.93
2019-02-16T10:11:15.781Z,24.33
2019-02-16T10:14:04.173Z,24.17
2019-02-16T10:16:46.144Z,23.80
2019-02-16T10:19:36.453Z,24.43
2019-02-16T10:22:24.364Z,23.87
2019-02-16T10:25:03.601Z,23.07
2019-02-16T10:27:44.772Z,24.43
2019-02-16T10:30:17.793Z,25.40
2019-02-16T10:33:07.072Z,23.53
2019-02-16T10:35:46.188Z,22.63
2019-02-16T10:38:34.641Z,22.93
2019-02-16T10:41:10.683Z,23.00
2019-02-16T10:43:49.795Z,23.87
2019-02-16T10:46:40.408Z,25.50
2019-02-16T10:49:16.645Z,22.80
2019-02-16T10:51:52.150Z,25.03
2019-02-16T10:54:40.194Z,24.37
2019-02-16T10:57:17.261Z,23.80
2019-02-16T10:59:50.218Z,24.23
2019-02-16T11:02:45.846Z,23.18
2019-02-16T11:05:19.059Z,23.90
2019-02-16T11:07:52.204Z,23.83
2019-02-16T11:10:28.089Z,23.22
2019-02-16T11:13:11.496Z,23.18
2019-02-16T11:15:47.345Z,23.77
2019-02-16T11:18:35.248Z,22.70
2019-02-16T11:21:10.840Z,23.67
2019-02-16T11:23:45.415Z,23.32
2019-02-16T11:26:21.097Z,21.90
2019-02-16T11:29:11.184Z,22.67
2019-02-16T11:31:42.614Z,22.60
2019-02-16T11:34:31.885Z,21.90
2019-02-16T11:37:05.139Z,23.20
2019-02-16T11:39:39.085Z,22.40
2019-02-16T11:42:14.736Z,21.15
2019-02-16T11:44:50.770Z,22.58
2019-02-16T11:47:26.386Z,22.15
2019-02-16T11:50:11.066Z,21.70
2019-02-16T11:53:00.357Z,20.77
2019-02-16T11:55:34.587Z,21.55
2019-02-16T11:58:13.514Z,20.62
2019-02-16T12:00:52.639Z,20.82
2019-02-16T12:03:28.562Z,22.22
2019-02-16T12:06:07.458Z,21.45
2019-02-16T12:08:42.506Z,21.55
2019-02-16T12:11:15.556Z,20.70
2019-02-16T12:13:51.577Z,21.60
2019-02-16T12:16:25.599Z,22.07
2019-02-16T12:19:17.070Z,21.33
2019-02-16T12:21:53.193Z,20.52
2019-02-16T12:24:26.679Z,20.17
2019-02-16T12:27:17.941Z,21.10
2019-02-16T12:29:56.899Z,20.92
2019-02-16T12:32:59.852Z,21.50
2019-02-16T12:35:34.341Z,20.77
2019-02-16T12:38:18.764Z,20.00
2019-02-16T12:41:08.161Z,18.20
2019-02-16T12:43:51.651Z,19.25
2019-02-16T12:46:29.095Z,19.52
2019-02-16T12:49:12.094Z,19.15
2019-02-16T12:51:45.306Z,18.37
2019-02-16T12:54:27.600Z,17.87
2019-02-16T12:57:03.482Z,18.82
2019-02-16T12:59:47.104Z,18.73
2019-02-16T13:02:20.198Z,19.70
2019-02-16T13:05:04.958Z,18.15
2019-02-16T13:07:44.070Z,16.82
2019-02-16T13:10:23.647Z,18.30
2019-02-16T13:13:02.707Z,17.42
2019-02-16T13:15:44.404Z,21.55
2019-02-16T13:18:23.260Z,17.82
2019-02-16T13:21:02.087Z,17.27
2019-02-16T13:23:37.913Z,16.97
2019-02-16T13:26:14.127Z,16.80
2019-02-16T13:29:02.442Z,17.23
2019-02-16T13:31:51.802Z,16.97
2019-02-16T13:34:34.352Z,16.95
2019-02-16T13:37:13.858Z,16.55
2019-02-16T13:39:55.590Z,17.57
2019-02-16T13:42:34.529Z,17.25
2019-02-16T13:45:12.768Z,17.52
2019-02-16T13:47:45.745Z,16.90
2019-02-16T13:50:20.361Z,16.77
2019-02-16T13:52:56.274Z,17.67
2019-02-16T13:55:36.356Z,15.53
2019-02-16T13:58:10.759Z,17.23
2019-02-16T14:00:55.928Z,17.32
2019-02-16T14:03:28.896Z,16.80
2019-02-16T14:06:02.215Z,16.10
2019-02-16T14:08:40.887Z,17.30
2019-02-16T14:11:20.152Z,16.00
2019-02-16T14:13:58.967Z,16.27
2019-02-16T14:16:32.078Z,15.08
2019-02-16T14:19:03.437Z,16.10
2019-02-16T14:21:34.913Z,15.85
2019-02-16T14:24:06.261Z,15.10
2019-02-16T14:26:37.654Z,15.48
2019-02-16T14:29:08.972Z,14.98
2019-02-16T14:31:40.382Z,15.23
2019-02-16T14:34:11.772Z,15.85
2019-02-16T14:36:44.707Z,15.18
2019-02-16T14:39:16.420Z,14.93
2019-02-16T14:41:47.877Z,14.38
2019-02-16T14:44:19.463Z,15.68
2019-02-16T14:46:50.991Z,15.25
2019-02-16T14:49:22.559Z,14.35
2019-02-16T14:51:54.044Z,14.63
2019-02-16T14:54:30.710Z,14.60
2019-02-16T14:57:02.135Z,15.75
2019-02-16T14:59:33.433Z,15.38
2019-02-16T15:02:04.984Z,18.15
2019-02-16T15:04:36.456Z,15.45
2019-02-16T15:07:11.075Z,15.03
2019-02-16T15:09:42.539Z,16.00
2019-02-16T15:12:14.554Z,17.00
2019-02-16T15:14:46.035Z,15.75
2019-02-16T15:17:17.351Z,15.88
2019-02-16T15:19:49.781Z,16.25
2019-02-16T15:22:21.185Z,16.32
2019-02-16T15:24:52.617Z,15.68
2019-02-16T15:27:24.159Z,27.25
2019-02-16T15:29:55.600Z,16.85
2019-02-16T15:32:27.182Z,21.82
2019-02-16T15:34:58.629Z,15.13
2019-02-16T15:37:30.123Z,16.07
2019-02-16T15:40:01.607Z,15.28
2019-02-16T15:42:36.650Z,15.75
2019-02-16T15:45:15.212Z,15.30
2019-02-16T15:47:46.619Z,14.87
2019-02-16T15:50:18.183Z,15.13
2019-02-16T15:52:49.843Z,16.27
2019-02-16T15:55:23.491Z,15.75
2019-02-16T15:57:55.043Z,40.70
2019-02-16T16:00:28.040Z,33.35
2019-02-16T16:02:59.790Z,31.42
2019-02-16T16:05:33.952Z,77.82
2019-02-16T16:08:07.025Z,44.23
2019-02-16T16:10:43.404Z,46.15
2019-02-16T16:13:19.417Z,55.83
2019-02-16T16:16:08.803Z,52.70
2019-02-16T16:18:47.385Z,42.80
2019-02-16T16:21:23.054Z,28.12
2019-02-16T16:24:05.155Z,22.98
2019-02-16T16:26:39.443Z,24.25
2019-02-16T16:29:24.458Z,21.55
2019-02-16T16:32:03.641Z,27.07
2019-02-16T16:34:34.960Z,26.57
2019-02-16T16:37:15.370Z,21.17
2019-02-16T16:39:57.058Z,19.15
2019-02-16T16:42:30.606Z,18.07
2019-02-16T16:45:09.732Z,19.57
2019-02-16T16:47:41.046Z,17.87
2019-02-16T16:50:26.133Z,16.40
2019-02-16T16:53:02.038Z,15.55
2019-02-16T16:55:39.222Z,17.73
2019-02-16T16:58:12.317Z,17.10
2019-02-16T17:00:48.551Z,17.10
2019-02-16T17:03:35.842Z,15.70
2019-02-16T17:06:28.385Z,16.57
2019-02-16T17:09:03.957Z,17.48
2019-02-16T17:11:54.041Z,16.00
2019-02-16T17:14:40.832Z,15.45
2019-02-16T17:17:19.387Z,16.45
2019-02-16T17:20:04.541Z,16.90
2019-02-16T17:22:44.779Z,17.02
2019-02-16T17:25:27.617Z,18.30
2019-02-16T17:28:03.384Z,21.23
2019-02-16T17:30:36.388Z,20.30
2019-02-16T17:33:21.015Z,21.85
2019-02-16T17:36:00.477Z,17.98
2019-02-16T17:38:42.647Z,20.82
2019-02-16T17:41:15.776Z,18.15
2019-02-16T17:44:01.891Z,20.12
2019-02-16T17:46:37.678Z,23.40
2019-02-16T17:49:28.297Z,21.87
2019-02-16T17:52:04.181Z,25.95
2019-02-16T17:54:37.610Z,23.57
2019-02-16T17:57:26.660Z,22.02
2019-02-16T18:00:08.469Z,22.32
2019-02-16T18:02:49.800Z,27.98
2019-02-16T18:05:22.952Z,24.50
2019-02-16T18:08:03.044Z,23.62
2019-02-16T18:10:37.387Z,22.67
2019-02-16T18:13:17.943Z,21.15
2019-02-16T18:15:51.122Z,21.00
2019-02-16T18:18:40.375Z,21.57
2019-02-16T18:21:13.650Z,20.27
2019-02-16T18:24:05.994Z,21.17
2019-02-16T18:26:56.531Z,23.65
2019-02-16T18:29:30.929Z,21.77
2019-02-16T18:32:05.521Z,22.65
2019-02-16T18:34:39.683Z,28.83
2019-02-16T18:37:12.869Z,25.62
2019-02-16T18:40:05.494Z,22.90
2019-02-16T18:42:47.483Z,23.25
2019-02-16T18:45:33.958Z,21.65
2019-02-16T18:48:20.424Z,20.35
2019-02-16T18:50:59.278Z,20.82
2019-02-16T18:53:48.826Z,18.90
2019-02-16T18:56:27.567Z,20.55
2019-02-16T18:59:01.749Z,20.92
2019-02-16T19:01:37.798Z,18.15
2019-02-16T19:04:19.517Z,17.57
2019-02-16T19:07:04.283Z,17.35
2019-02-16T19:09:38.779Z,18.48
2019-02-16T19:12:11.795Z,18.98
2019-02-16T19:14:44.899Z,19.00
2019-02-16T19:17:20.648Z,17.65
2019-02-16T19:19:54.051Z,19.40
2019-02-16T19:22:30.284Z,17.50
2019-02-16T19:25:10.064Z,18.03
2019-02-16T19:27:46.050Z,18.30
2019-02-16T19:30:26.008Z,17.90
2019-02-16T19:33:04.737Z,18.17
2019-02-16T19:35:43.488Z,18.95
2019-02-16T19:38:31.406Z,19.48
2019-02-16T19:41:10.362Z,18.63
2019-02-16T19:43:46.228Z,18.60
2019-02-16T19:46:19.192Z,19.98
2019-02-16T19:48:58.135Z,20.12
2019-02-16T19:51:34.271Z,19.63
2019-02-16T19:54:07.476Z,18.93
2019-02-16T19:56:46.214Z,18.67
2019-02-16T19:59:26.573Z,18.87
2019-02-16T20:02:06.660Z,18.57
2019-02-16T20:04:43.971Z,18.52
2019-02-16T20:07:22.862Z,19.10
2019-02-16T20:10:07.850Z,18.63
2019-02-16T20:12:40.894Z,18.37
2019-02-16T20:15:22.956Z,19.60
2019-02-16T20:18:00.003Z,21.70
2019-02-16T20:20:35.753Z,19.93
2019-02-16T20:23:24.978Z,18.97
2019-02-16T20:26:14.637Z,18.17
2019-02-16T20:28:47.651Z,17.53
2019-02-16T20:31:26.598Z,18.00
2019-02-16T20:34:17.897Z,18.37
2019-02-16T20:36:55.815Z,18.27
2019-02-16T20:39:32.029Z,17.93
2019-02-16T20:42:14.479Z,18.60
2019-02-16T20:45:03.043Z,19.10
2019-02-16T20:47:52.242Z,19.90
2019-02-16T20:50:25.253Z,20.57
2019-02-16T20:53:08.736Z,20.23
2019-02-16T20:55:50.367Z,20.73
2019-02-16T20:58:32.086Z,20.33
2019-02-16T21:01:07.930Z,20.13
2019-02-16T21:03:59.226Z,22.20
2019-02-16T21:06:32.253Z,23.67
2019-02-16T21:09:24.740Z,23.90
2019-02-16T21:12:00.641Z,22.00
2019-02-16T21:14:40.798Z,20.57
2019-02-16T21:17:16.600Z,18.90
2019-02-16T21:20:03.454Z,19.17
2019-02-16T21:22:52.481Z,17.60
2019-02-16T21:25:25.531Z,15.60
2019-02-16T21:27:58.542Z,16.13
2019-02-16T21:30:43.634Z,17.17
2019-02-16T21:33:16.670Z,17.10
2019-02-16T21:36:07.893Z,16.03
2019-02-16T21:38:51.350Z,14.07
2019-02-16T21:41:29.919Z,15.23
2019-02-16T21:44:14.984Z,15.27
2019-02-16T21:46:48.022Z,14.80
2019-02-16T21:49:29.846Z,15.87
2019-02-16T21:52:04.481Z,14.63
2019-02-16T21:54:38.609Z,15.00
2019-02-16T21:57:26.993Z,14.87
2019-02-16T22:00:09.227Z,15.83
2019-02-16T22:02:42.410Z,15.80
2019-02-16T22:05:24.484Z,15.67
2019-02-16T22:08:00.406Z,16.60
2019-02-16T22:10:39.397Z,15.23
2019-02-16T22:13:25.286Z,15.43
2019-02-16T22:15:56.631Z,17.73
2019-02-16T22:18:28.092Z,15.87
2019-02-16T22:20:59.842Z,15.60
2019-02-16T22:23:31.286Z,15.83
2019-02-16T22:26:02.785Z,16.30
2019-02-16T22:28:34.100Z,15.77
2019-02-16T22:31:05.431Z,14.30
2019-02-16T22:33:36.834Z,14.40
2019-02-16T22:36:08.356Z,13.93
2019-02-16T22:38:40.292Z,14.13
2019-02-16T22:41:11.598Z,14.20
2019-02-16T22:43:42.943Z,14.77
2019-02-16T22:46:14.383Z,14.83
2019-02-16T22:48:45.648Z,15.27
2019-02-16T22:51:16.928Z,14.57
2019-02-16T22:53:48.302Z,13.80
2019-02-16T22:56:19.712Z,14.13
2019-02-16T22:58:51.078Z,13.90
2019-02-16T23:01:23.488Z,13.53
2019-02-16T23:03:55.108Z,14.17
2019-02-16T23:06:26.514Z,14.77
2019-02-16T23:08:57.832Z,14.27
2019-02-16T23:11:32.164Z,15.30
2019-02-16T23:14:04.211Z,14.90
2019-02-16T23:16:35.794Z,16.30
2019-02-16T23:19:07.331Z,16.73
2019-02-16T23:21:38.726Z,17.97
2019-02-16T23:24:10.133Z,17.73
2019-02-16T23:26:41.550Z,16.93
2019-02-16T23:29:13.917Z,16.93
2019-02-16T23:31:45.483Z,16.73
2019-02-16T23:34:16.830Z,16.50
2019-02-16T23:36:48.279Z,17.17
2019-02-16T23:39:19.537Z,17.93
2019-02-16T23:41:50.835Z,15.63
2019-02-16T23:44:22.192Z,15.87
2019-02-16T23:46:53.667Z,17.87
2019-02-16T23:49:25.001Z,18.13
2019-02-16T23:51:56.395Z,18.43
2019-02-16T23:54:27.811Z,18.00
2019-02-16T23:56:59.216Z,15.90
2019-02-16T23:59:30.534Z,16.17
